»·PEaware :: N172TT KSNA-KSNA

N172TT :: KSNA-KSNA

FLIGHT INFORMATION

Flight Status: Arrived
Operator: Privately registered:
United States
More flights under this callsign
Pilot: Thomas T. (19955)
Aircraft: CESSNA 172 SKYHAWK
(C172)
More flights by this aircraft type
Origin: KSNA John Wayne-Orange Co
United States
Destination: KSNA John Wayne-Orange Co
United States
More flights between these airports :: More routes between these airports
Route: +SLI
File this flight plan on PilotEdge
Remarks: TRAING FLIGHT
Altitude:
(Current/Filed)
3,000ft
Speed:
(Current/Filed)
118kts
Departed: 20-Sep-18 11:27 AM
Arrived: 20-Sep-18 12:16 PM
Distance/Time
Traveled:
0nm/0:49
Distance/Time
To Go:
Arrived

Flight Plot

Page will automatically refresh every two minutes.


Map Options




Map Legend


Flown Route
Filed Route
Departure Airport
Arrival Airport
Navaid (VOR, NDB)
Fix

Horizontal Profiles

Position Reports

Time Latitude Longitude Heading Altitude Ground
Speed
20-Sep-18 11:12 33.675188 -117.871577 26 60ft 0kts
20-Sep-18 11:13 33.675188 -117.871577 26 60ft 0kts
20-Sep-18 11:14 33.675188 -117.871577 26 60ft 0kts
20-Sep-18 11:15 33.675188 -117.871577 26 60ft 0kts
20-Sep-18 11:16 33.675188 -117.871577 26 60ft 0kts
20-Sep-18 11:17 33.675188 -117.871577 26 60ft 0kts
20-Sep-18 11:18 33.675188 -117.871577 26 60ft 0kts
20-Sep-18 11:19 33.675188 -117.871577 26 60ft 0kts
20-Sep-18 11:20 33.675188 -117.871577 26 60ft 0kts
20-Sep-18 11:21 33.675189 -117.871576 22 60ft 0kts
20-Sep-18 11:22 33.676063 -117.870110 27 60ft 11kts
20-Sep-18 11:23 33.679564 -117.867968 15 60ft 11kts
20-Sep-18 11:24 33.681249 -117.866858 71 60ft 0kts
20-Sep-18 11:25 33.681249 -117.866858 71 60ft 0kts
20-Sep-18 11:26 33.681249 -117.866858 71 60ft 0kts
20-Sep-18 11:27 33.681249 -117.866858 71 60ft 0kts
20-Sep-18 11:28 33.681265 -117.866682 95 60ft 9kts
20-Sep-18 11:29 33.679797 -117.866213 206 60ft 41kts
20-Sep-18 11:30 33.659903 -117.881565 213 520ft 108kts
20-Sep-18 11:31 33.643250 -117.911600 241 1112ft 108kts
20-Sep-18 11:32 33.629206 -117.943199 241 1711ft 106kts
20-Sep-18 11:33 33.614593 -117.976281 241 2098ft 111kts
20-Sep-18 11:34 33.591918 -117.972563 123 2600ft 108kts
20-Sep-18 11:35 33.604965 -117.944028 27 2909ft 118kts
20-Sep-18 11:36 33.635943 -117.928462 20 3010ft 122kts
20-Sep-18 11:37 33.667457 -117.913611 21 3008ft 116kts
20-Sep-18 11:38 33.696840 -117.899652 21 3007ft 113kts
20-Sep-18 11:39 33.725706 -117.885850 21 3006ft 112kts
20-Sep-18 11:40 33.751910 -117.873242 21 3006ft 112kts
20-Sep-18 11:41 33.777166 -117.861017 21 3006ft 112kts
20-Sep-18 11:42 33.806070 -117.846939 21 3006ft 112kts
20-Sep-18 11:43 33.835017 -117.832746 21 3006ft 112kts
20-Sep-18 11:44 33.863956 -117.818462 22 3005ft 112kts
20-Sep-18 11:45 33.892823 -117.804299 24 3005ft 111kts
20-Sep-18 11:46 33.903659 -117.772840 91 2996ft 111kts
20-Sep-18 11:47 33.902455 -117.735959 110 2991ft 111kts
20-Sep-18 11:48 33.875195 -117.732830 217 2976ft 111kts
20-Sep-18 11:49 33.851616 -117.756760 220 2975ft 109kts
20-Sep-18 11:50 33.827546 -117.776600 186 2960ft 106kts
20-Sep-18 11:51 33.802079 -117.791669 220 2932ft 104kts
20-Sep-18 11:52 33.780379 -117.814478 224 2890ft 102kts
20-Sep-18 11:53 33.775053 -117.837001 337 3061ft 94kts
20-Sep-18 11:54 33.801371 -117.832124 12 3165ft 102kts
20-Sep-18 11:55 33.830422 -117.824164 12 3011ft 113kts
20-Sep-18 11:56 33.860461 -117.815824 12 2957ft 100kts
20-Sep-18 11:57 33.888194 -117.808377 13 2965ft 103kts
20-Sep-18 11:58 33.915753 -117.798823 28 2963ft 103kts
20-Sep-18 11:59 33.914931 -117.767504 107 2953ft 103kts
20-Sep-18 12:00 33.905201 -117.734925 133 2949ft 104kts
20-Sep-18 12:01 33.881820 -117.741508 240 2937ft 104kts
20-Sep-18 12:02 33.860217 -117.763667 213 2937ft 103kts
20-Sep-18 12:03 33.850200 -117.794659 225 2970ft 100kts
20-Sep-18 12:04 33.837522 -117.780103 47 3070ft 98kts
20-Sep-18 12:05 33.860957 -117.764200 20 3172ft 98kts
20-Sep-18 12:06 33.885169 -117.754011 2 3236ft 100kts
20-Sep-18 12:07 33.913391 -117.756473 12 3235ft 103kts
20-Sep-18 12:08 33.910274 -117.733156 166 3217ft 103kts
20-Sep-18 12:09 33.882464 -117.736720 200 3215ft 103kts
20-Sep-18 12:10 33.856715 -117.751845 209 3214ft 103kts
20-Sep-18 12:11 33.831500 -117.771259 210 2911ft 109kts
20-Sep-18 12:12 33.805530 -117.787906 202 2505ft 104kts
20-Sep-18 12:13 33.778841 -117.802838 205 2014ft 107kts
20-Sep-18 12:14 33.752203 -117.820201 210 1386ft 112kts
20-Sep-18 12:15 33.728341 -117.836564 206 1066ft 92kts
20-Sep-18 12:16 33.709459 -117.847409 206 644ft 64kts
20-Sep-18 12:17 33.693398 -117.857556 206 375ft 67kts
20-Sep-18 12:18 33.678549 -117.867051 210 60ft 28kts
20-Sep-18 12:19 33.678202 -117.869094 290 60ft 6kts

Navigation Log

Ident Type
Flight plan parsing failed, navigation log unavailable